Time;durP1;ratioP1;P1;durP2;ratioP2;P2;SDS_P1;SDS_P2;PMS_P1;PMS_P2;Temp;Humidity;BMP_temperature;BMP_pressure;BME280_temperature;BME280_humidity;BME280_pressure;Samples;Min_cycle;Max_cycle;Signal;HPM_P1;HPM_P2
2023/05/04 00:01:59;;;;;;;0.05;0.05;;;;;;;15.55;54.40;101188.53;7358798;19;20370;-66
2023/05/04 00:04:25;;;;;;;0.08;0.08;;;;;;;15.52;54.87;101186.00;7357760;19;20039;-66
2023/05/04 00:06:50;;;;;;;0.00;0.00;;;;;;;15.50;54.90;101200.97;7359901;19;20011;-66
2023/05/04 00:09:16;;;;;;;0.00;0.00;;;;;;;15.47;54.99;101203.75;7357770;19;20930;-66
2023/05/04 00:11:41;;;;;;;0.03;0.03;;;;;;;15.46;54.76;101217.78;7360650;19;20090;-66
2023/05/04 00:14:07;;;;;;;0.00;0.00;;;;;;;15.29;55.27;101190.28;7358441;19;20018;-66
2023/05/04 00:16:34;;;;;;;0.00;0.00;;;;;;;15.42;54.83;101219.69;7358520;19;20811;-65
2023/05/04 00:19:00;;;;;;;0.00;0.00;;;;;;;15.37;54.71;101207.59;7359705;19;20080;-66
2023/05/04 00:21:25;;;;;;;0.10;0.10;;;;;;;15.33;54.92;101212.09;7358926;19;20223;-66
2023/05/04 00:23:50;;;;;;;0.00;0.00;;;;;;;15.33;54.77;101206.84;7359527;19;20578;-66
2023/05/04 00:26:16;;;;;;;0.00;0.00;;;;;;;15.19;54.66;101188.88;7359099;19;20251;-66
2023/05/04 00:28:41;;;;;;;0.00;0.00;;;;;;;15.28;54.34;101207.00;7357286;19;20014;-66
2023/05/04 00:31:07;;;;;;;0.00;0.00;;;;;;;15.25;54.49;101201.81;7357385;19;20104;-66
2023/05/04 00:33:32;;;;;;;0.10;0.10;;;;;;;15.24;54.67;101208.00;7358340;19;20010;-66
2023/05/04 00:35:57;;;;;;;0.00;0.00;;;;;;;15.20;54.38;101195.84;7360182;19;20030;-64
2023/05/04 00:38:23;;;;;;;0.00;0.00;;;;;;;15.18;54.37;101200.31;7358988;19;20034;-66
2023/05/04 00:40:48;;;;;;;0.00;0.00;;;;;;;15.16;54.56;101199.53;7359487;19;20037;-66
2023/05/04 00:43:14;;;;;;;0.00;0.00;;;;;;;15.15;54.60;101195.16;7356499;19;20025;-66
2023/05/04 00:45:40;;;;;;;0.00;0.00;;;;;;;15.15;55.15;101191.66;7359947;19;20665;-66
2023/05/04 00:48:06;;;;;;;0.00;0.00;;;;;;;15.12;54.58;101197.06;7356976;19;20021;-66
2023/05/04 00:50:31;;;;;;;0.00;0.00;;;;;;;15.12;54.90;101192.66;7358991;19;20038;-66
2023/05/04 00:53:00;;;;;;;0.00;0.00;;;;;;;15.12;54.66;101203.16;7359424;19;20074;-66
2023/05/04 00:55:26;;;;;;;0.00;0.00;;;;;;;15.09;54.68;101211.16;7355632;19;20010;-66
2023/05/04 00:57:51;;;;;;;0.00;0.00;;;;;;;15.06;54.68;101213.91;7359157;19;20685;-66
2023/05/04 01:00:17;;;;;;;0.00;0.00;;;;;;;15.01;54.88;101213.19;7358872;19;20011;-66
2023/05/04 01:02:42;;;;;;;0.00;0.00;;;;;;;14.98;54.99;101226.44;7357950;19;20010;-66
2023/05/04 01:05:11;;;;;;;0.00;0.00;;;;;;;14.84;54.77;101207.59;7358766;19;20030;-66
2023/05/04 01:07:57;;;;;;;0.00;0.00;;;;;;;14.93;54.28;101217.84;7356275;19;20010;-66
2023/05/04 01:10:33;;;;;;;0.00;0.00;;;;;;;14.89;54.46;101216.19;7354909;19;20026;-66
2023/05/04 01:13:09;;;;;;;0.03;0.03;;;;;;;14.71;54.84;101186.97;7358222;19;20027;-66
2023/05/04 01:15:36;;;;;;;0.10;0.10;;;;;;;14.79;55.08;101205.13;7358752;19;20010;-67
2023/05/04 01:18:01;;;;;;;0.00;0.00;;;;;;;14.76;55.30;101202.59;7357072;19;20014;-66
2023/05/04 01:20:27;;;;;;;0.00;0.00;;;;;;;14.73;55.20;101195.66;7354499;19;20006;-66
2023/05/04 01:22:52;;;;;;;0.10;0.10;;;;;;;14.69;55.54;101201.06;7358369;19;20629;-66
2023/05/04 01:25:18;;;;;;;0.10;0.10;;;;;;;14.66;55.56;101196.78;7356211;19;20026;-66
2023/05/04 01:27:43;;;;;;;0.10;0.10;;;;;;;14.63;55.27;101199.50;7357031;19;20018;-66
2023/05/04 01:30:36;;;;;;;0.00;0.00;;;;;;;14.63;54.05;101193.38;7357164;19;20018;-66
2023/05/04 01:33:03;;;;;;;0.00;0.00;;;;;;;14.58;55.47;101179.53;7255449;19;2004402;-66
2023/05/04 01:35:28;;;;;;;0.00;0.00;;;;;;;14.54;55.84;101174.34;7353661;19;20570;-66
2023/05/04 01:37:54;;;;;;;0.00;0.00;;;;;;;14.52;55.67;101177.94;7358543;19;20014;-66
2023/05/04 01:40:20;;;;;;;0.00;0.00;;;;;;;14.49;55.65;101176.25;7355467;19;20042;-66
2023/05/04 01:42:45;;;;;;;0.00;0.00;;;;;;;14.47;55.57;101171.94;7357685;19;20664;-66
2023/05/04 01:45:11;;;;;;;0.03;0.03;;;;;;;14.46;55.64;101165.84;7354482;19;20025;-66
2023/05/04 01:47:37;;;;;;;0.00;0.00;;;;;;;14.43;55.96;101162.44;7358832;19;20876;-66
2023/05/04 01:50:04;;;;;;;0.00;0.00;;;;;;;14.41;55.64;101161.63;7354903;19;20017;-66
2023/05/04 01:52:30;;;;;;;0.00;0.00;;;;;;;14.37;55.76;101171.38;7363727;19;20577;-66
2023/05/04 01:54:55;;;;;;;0.00;0.00;;;;;;;14.35;55.79;101167.09;7362175;19;20007;-66
2023/05/04 01:57:21;;;;;;;0.00;0.00;;;;;;;14.31;56.12;101161.06;7362753;19;20011;-66
2023/05/04 01:59:46;;;;;;;0.00;0.00;;;;;;;14.27;55.59;101159.44;7351942;19;20089;-66
2023/05/04 02:02:11;;;;;;;0.00;0.00;;;;;;;14.26;56.11;101162.97;7362045;19;20018;-67
2023/05/04 02:04:37;;;;;;;0.00;0.00;;;;;;;14.23;55.69;101163.03;7362487;19;20011;-66
2023/05/04 02:07:02;;;;;;;0.00;0.00;;;;;;;14.20;56.11;101153.50;7358300;19;20014;-66
2023/05/04 02:09:28;;;;;;;0.08;0.08;;;;;;;14.13;56.08;101136.19;7363775;19;20018;-66
2023/05/04 02:11:53;;;;;;;0.00;0.00;;;;;;;14.12;55.93;101139.72;7358897;19;20029;-66
2023/05/04 02:14:19;;;;;;;0.00;0.00;;;;;;;14.09;56.29;101138.97;7357002;19;20007;-66
2023/05/04 02:16:45;;;;;;;0.00;0.00;;;;;;;14.06;56.00;101129.41;7359680;19;20026;-66
2023/05/04 02:19:10;;;;;;;0.10;0.10;;;;;;;14.04;56.10;101131.25;7359101;19;20009;-66
2023/05/04 02:21:36;;;;;;;0.00;0.00;;;;;;;14.02;56.33;101138.28;7362259;19;20011;-66
2023/05/04 02:24:03;;;;;;;0.00;0.00;;;;;;;14.00;56.38;101130.47;7361293;19;20750;-66
2023/05/04 02:26:29;;;;;;;0.00;0.00;;;;;;;13.98;56.61;101124.38;7361476;19;20543;-66
2023/05/04 02:28:55;;;;;;;0.00;0.00;;;;;;;13.95;56.92;101119.25;7359210;19;20007;-66
2023/05/04 02:31:20;;;;;;;0.00;0.00;;;;;;;13.93;56.83;101120.19;7361870;19;20006;-66
2023/05/04 02:33:46;;;;;;;0.03;0.03;;;;;;;13.91;56.87;101125.50;7359317;19;21901;-66
2023/05/04 02:36:11;;;;;;;0.10;0.10;;;;;;;13.89;56.75;101123.78;7360743;19;20019;-66
2023/05/04 02:38:36;;;;;;;0.00;0.00;;;;;;;13.87;57.01;101128.25;7361423;19;20014;-66
2023/05/04 02:41:02;;;;;;;0.00;0.00;;;;;;;13.85;56.98;101130.06;7360935;19;20022;-66
2023/05/04 02:43:27;;;;;;;0.00;0.00;;;;;;;13.82;57.26;101133.63;7358612;19;20428;-67
2023/05/04 02:45:53;;;;;;;0.05;0.05;;;;;;;13.77;57.01;101128.50;7354926;19;20098;-66
2023/05/04 02:48:18;;;;;;;0.05;0.05;;;;;;;13.76;56.98;101136.44;7360685;19;20017;-66
2023/05/04 02:50:45;;;;;;;0.00;0.00;;;;;;;13.68;57.12;101120.91;7361072;19;20026;-67
2023/05/04 02:53:10;;;;;;;0.10;0.10;;;;;;;13.70;56.92;101126.97;7361430;19;20385;-67
2023/05/04 02:55:36;;;;;;;0.00;0.00;;;;;;;13.66;57.08;101122.72;7358936;19;20022;-67
2023/05/04 02:58:01;;;;;;;0.00;0.00;;;;;;;13.64;57.44;101127.16;7360358;19;20018;-66
2023/05/04 03:00:26;;;;;;;0.10;0.10;;;;;;;13.55;57.10;101122.16;7359965;19;20081;-67
2023/05/04 03:02:52;;;;;;;0.10;0.10;;;;;;;13.57;57.52;101120.34;7357679;19;20490;-66
2023/05/04 03:05:18;;;;;;;0.00;0.00;;;;;;;13.55;57.34;101110.81;7347885;19;20090;-66
2023/05/04 03:07:43;;;;;;;0.00;0.00;;;;;;;13.49;57.38;101107.47;7360571;19;20077;-61
2023/05/04 03:10:09;;;;;;;0.00;0.00;;;;;;;13.46;57.85;101111.94;7362308;19;20027;-66
2023/05/04 03:12:34;;;;;;;0.00;0.00;;;;;;;13.29;57.60;101083.56;7361216;19;20039;-67
2023/05/04 03:14:59;;;;;;;0.08;0.08;;;;;;;13.38;57.99;101098.16;7360326;19;20011;-67
2023/05/04 03:17:25;;;;;;;0.00;0.00;;;;;;;13.30;57.96;101084.41;7358614;19;20032;-67
2023/05/04 03:19:51;;;;;;;0.00;0.00;;;;;;;13.30;58.16;101100.16;7354369;19;20466;-67
2023/05/04 03:22:16;;;;;;;0.00;0.00;;;;;;;13.26;58.23;101093.25;7360435;19;20035;-66
2023/05/04 03:24:41;;;;;;;0.10;0.10;;;;;;;13.21;58.05;101086.38;7361337;19;20069;-66
2023/05/04 03:27:07;;;;;;;0.00;0.00;;;;;;;13.19;58.13;101082.06;7361144;19;20637;-67
2023/05/04 03:29:33;;;;;;;0.00;0.00;;;;;;;13.11;58.60;101069.13;7360832;19;20033;-66
2023/05/04 03:31:58;;;;;;;0.00;0.00;;;;;;;13.11;58.07;101069.13;7360136;19;20641;-67
2023/05/04 03:34:24;;;;;;;0.00;0.00;;;;;;;13.09;58.17;101065.72;7359506;19;20280;-66
2023/05/04 03:36:49;;;;;;;0.10;0.10;;;;;;;13.05;58.33;101053.56;7360793;19;20014;-67
2023/05/04 03:39:18;;;;;;;0.00;0.00;;;;;;;13.04;58.64;101051.88;7359425;19;20014;-66
2023/05/04 03:41:43;;;;;;;0.00;0.00;;;;;;;13.00;59.15;101050.22;7360000;19;20042;-67
2023/05/04 03:44:08;;;;;;;0.00;0.00;;;;;;;12.86;59.36;101026.13;7358873;19;20014;-67
2023/05/04 03:46:34;;;;;;;0.00;0.00;;;;;;;12.96;59.49;101046.81;7361273;19;20007;-67
2023/05/04 03:49:00;;;;;;;0.10;0.10;;;;;;;12.92;59.33;101036.44;7358812;19;20014;-67
2023/05/04 03:51:25;;;;;;;0.03;0.03;;;;;;;12.93;59.81;101027.72;7361690;19;20011;-66
2023/05/04 03:53:51;;;;;;;0.00;0.00;;;;;;;12.82;59.77;101019.25;7359736;19;20428;-66
2023/05/04 03:56:16;;;;;;;0.00;0.00;;;;;;;12.91;59.82;101029.50;7360879;19;20112;-67
2023/05/04 03:58:41;;;;;;;0.00;0.00;;;;;;;12.89;60.28;101007.72;7360720;19;20017;-67
2023/05/04 04:01:07;;;;;;;0.00;0.00;;;;;;;12.93;60.39;101007.59;7357246;19;20006;-66
2023/05/04 04:03:35;;;;;;;0.10;0.10;;;;;;;12.95;60.67;101010.16;7361173;19;20017;-67
2023/05/04 04:06:02;;;;;;;0.08;0.08;;;;;;;12.96;60.65;101011.88;7359810;19;21770;-66
2023/05/04 04:08:28;;;;;;;0.00;0.00;;;;;;;12.96;60.79;101004.00;7359193;19;20051;-66
2023/05/04 04:10:53;;;;;;;0.10;0.10;;;;;;;12.97;61.02;101005.72;7360370;19;20497;-66
2023/05/04 04:13:19;;;;;;;0.00;0.00;;;;;;;12.97;60.91;101000.47;7359610;19;20030;-64
2023/05/04 04:15:45;;;;;;;0.00;0.00;;;;;;;12.98;61.10;100991.75;7357836;19;20011;-66
2023/05/04 04:18:11;;;;;;;0.00;0.00;;;;;;;12.98;61.25;100994.38;7358857;19;20026;-65
2023/05/04 04:20:36;;;;;;;0.00;0.00;;;;;;;12.97;60.99;100990.00;7357727;19;20006;-67
2023/05/04 04:23:02;;;;;;;0.10;0.10;;;;;;;12.94;61.42;100979.63;7358967;19;20027;-63
2023/05/04 04:25:29;;;;;;;0.03;0.03;;;;;;;12.85;61.81;100967.63;7360650;19;20010;-66
2023/05/04 04:27:54;;;;;;;0.00;0.00;;;;;;;12.99;61.69;100982.97;7360138;19;20102;-66
2023/05/04 04:30:20;;;;;;;0.00;0.00;;;;;;;12.68;61.41;100934.03;7358503;19;20066;-67
2023/05/04 04:32:46;;;;;;;0.00;0.00;;;;;;;13.01;61.70;100978.53;7359788;19;20096;-66
2023/05/04 04:35:12;;;;;;;0.00;0.00;;;;;;;13.00;61.94;100982.06;7357128;19;20073;-67
2023/05/04 04:37:38;;;;;;;0.10;0.10;;;;;;;13.01;61.44;100980.28;7359512;19;20027;-67
2023/05/04 04:40:06;;;;;;;0.10;0.10;;;;;;;12.96;61.97;100967.31;7357753;19;20736;-67
2023/05/04 04:42:31;;;;;;;;;;;;;;;13.02;58.29;100975.00;7360731;19;20026;-66
2023/05/04 04:44:57;;;;;;;0.00;0.00;;;;;;;12.98;61.76;100978.63;7359493;19;20454;-67
2023/05/04 04:47:22;;;;;;;0.05;0.05;;;;;;;12.96;61.46;100972.56;7356852;19;20557;-67
2023/05/04 04:49:47;;;;;;;0.00;0.00;;;;;;;12.94;61.82;100961.28;7359012;19;20097;-67
2023/05/04 04:52:13;;;;;;;0.00;0.00;;;;;;;12.92;61.86;100960.44;7352892;19;20026;-66
2023/05/04 04:54:38;;;;;;;0.00;0.00;;;;;;;12.90;61.75;100960.47;7359130;19;20118;-67
2023/05/04 04:57:04;;;;;;;0.00;0.00;;;;;;;12.89;62.06;100957.91;7359799;19;20864;-67
2023/05/04 04:59:30;;;;;;;0.00;0.00;;;;;;;12.87;61.95;100957.09;7358024;19;20014;-67
2023/05/04 05:01:56;;;;;;;0.10;0.10;;;;;;;12.85;62.04;100951.03;7359582;19;20010;-66
2023/05/04 05:04:22;;;;;;;0.00;0.00;;;;;;;12.71;61.80;100933.06;7356138;19;20015;-66
2023/05/04 05:06:48;;;;;;;0.00;0.00;;;;;;;12.82;62.20;100956.34;7359284;19;20040;-67
2023/05/04 05:09:13;;;;;;;0.05;0.05;;;;;;;12.81;61.83;100954.63;7357238;19;20014;-66
2023/05/04 05:11:39;;;;;;;0.00;0.00;;;;;;;12.73;62.20;100942.63;7359263;19;20375;-67
2023/05/04 05:14:05;;;;;;;0.05;0.05;;;;;;;12.69;62.45;100940.13;7357202;19;20548;-68
2023/05/04 05:16:30;;;;;;;0.10;0.10;;;;;;;12.73;62.10;100947.00;7357362;19;20016;-67
2023/05/04 05:18:56;;;;;;;0.08;0.08;;;;;;;12.75;62.26;100949.56;7355328;19;20015;-66
2023/05/04 05:21:21;;;;;;;0.10;0.10;;;;;;;12.75;62.52;100949.56;7359480;19;20035;-66
2023/05/04 05:23:47;;;;;;;0.00;0.00;;;;;;;12.70;62.03;100939.22;7357870;19;20021;-66
2023/05/04 05:26:12;;;;;;;0.00;0.00;;;;;;;12.67;62.40;100940.19;7363564;19;20025;-66
2023/05/04 05:28:38;;;;;;;0.00;0.00;;;;;;;12.71;62.44;100939.16;7364215;19;20006;-66
2023/05/04 05:31:03;;;;;;;0.00;0.00;;;;;;;12.72;62.79;100938.28;7364544;19;20011;-67
2023/05/04 05:33:29;;;;;;;0.00;0.00;;;;;;;12.70;62.90;100940.06;7363849;19;20017;-67
2023/05/04 05:35:54;;;;;;;0.00;0.00;;;;;;;12.72;62.82;100946.16;7362595;19;20086;-67
2023/05/04 05:38:20;;;;;;;0.00;0.00;;;;;;;12.73;62.69;100947.88;7362259;19;20596;-67
2023/05/04 05:40:47;;;;;;;0.00;0.00;;;;;;;12.75;62.94;100949.56;7363588;19;20021;-67
2023/05/04 05:43:12;;;;;;;0.00;0.00;;;;;;;12.76;62.79;100946.03;7363933;19;20014;-66
2023/05/04 05:45:38;;;;;;;0.00;0.00;;;;;;;12.79;62.77;100945.97;7363058;19;20039;-67
2023/05/04 05:48:04;;;;;;;0.08;0.08;;;;;;;12.76;62.67;100938.19;7362452;19;20053;-67
2023/05/04 05:50:29;;;;;;;0.00;0.00;;;;;;;12.78;63.11;100933.78;7363273;19;20010;-67
2023/05/04 05:52:55;;;;;;;0.00;0.00;;;;;;;12.85;62.72;100945.78;7365075;19;20020;-66
2023/05/04 05:55:20;;;;;;;0.08;0.08;;;;;;;12.88;63.07;100951.81;7363763;19;21182;-67
2023/05/04 05:57:46;;;;;;;0.00;0.00;;;;;;;12.90;62.66;100951.78;7352910;19;20075;-66
2023/05/04 06:00:12;;;;;;;0.00;0.00;;;;;;;12.93;62.81;100938.59;7361441;19;20074;-67
2023/05/04 06:02:38;;;;;;;0.00;0.00;;;;;;;12.96;62.91;100938.47;7362966;19;20030;-66
2023/05/04 06:05:04;;;;;;;0.00;0.00;;;;;;;12.91;63.19;100930.75;7360561;19;20014;-67
2023/05/04 06:07:29;;;;;;;0.10;0.10;;;;;;;13.00;63.20;100940.13;7362109;19;20019;-67
2023/05/04 06:09:55;;;;;;;0.00;0.00;;;;;;;13.05;62.73;100926.88;7361624;19;20625;-66
2023/05/04 06:12:20;;;;;;;0.08;0.08;;;;;;;13.07;63.20;100933.78;7361540;19;20010;-67
2023/05/04 06:14:46;;;;;;;0.00;0.00;;;;;;;13.12;63.04;100929.25;7360721;19;20015;-67
2023/05/04 06:17:12;;;;;;;0.08;0.08;;;;;;;13.15;62.85;100934.44;7361606;19;20092;-67
2023/05/04 06:19:38;;;;;;;0.00;0.00;;;;;;;13.18;62.93;100923.84;7358561;19;20006;-67
2023/05/04 06:22:04;;;;;;;0.00;0.00;;;;;;;13.21;62.72;100923.78;7360289;19;20014;-67
2023/05/04 06:24:31;;;;;;;0.00;0.00;;;;;;;13.24;62.82;100923.69;7361106;19;20011;-67
2023/05/04 06:26:56;;;;;;;0.05;0.05;;;;;;;13.28;62.85;100918.34;7358427;19;20022;-66
2023/05/04 06:29:22;;;;;;;0.00;0.00;;;;;;;13.30;62.92;100912.16;7360678;19;20020;-67
2023/05/04 06:31:48;;;;;;;0.10;0.10;;;;;;;13.35;62.89;100914.66;7361811;19;20019;-67
2023/05/04 06:34:17;;;;;;;0.10;0.10;;;;;;;13.39;62.40;100903.16;7360806;19;20022;-67
2023/05/04 06:36:43;;;;;;;0.08;0.08;;;;;;;13.31;62.42;100887.66;7357703;19;20091;-67
2023/05/04 06:39:09;;;;;;;0.00;0.00;;;;;;;13.44;62.78;100896.00;7359938;19;20101;-67
2023/05/04 06:41:34;;;;;;;0.10;0.10;;;;;;;13.48;62.72;100905.47;7358638;19;20462;-67
2023/05/04 06:44:00;;;;;;;0.10;0.10;;;;;;;13.51;62.81;100894.88;7360183;19;20018;-67
2023/05/04 06:46:26;;;;;;;0.10;0.10;;;;;;;13.55;62.64;100896.50;7360501;19;20018;-67
2023/05/04 06:48:52;;;;;;;0.00;0.00;;;;;;;13.59;62.75;100885.03;7359586;19;20613;-67
2023/05/04 06:51:19;;;;;;;0.00;0.00;;;;;;;13.63;62.40;100883.13;7360065;19;20007;-67
2023/05/04 06:53:44;;;;;;;0.08;0.08;;;;;;;13.68;62.41;100881.22;7359912;19;20035;-68
2023/05/04 06:56:10;;;;;;;0.00;0.00;;;;;;;13.71;62.24;100879.38;7359486;19;20018;-67
2023/05/04 06:58:35;;;;;;;0.05;0.05;;;;;;;13.75;62.40;100883.59;7359767;19;20045;-67
2023/05/04 07:01:00;;;;;;;0.05;0.05;;;;;;;13.80;62.64;100880.84;7358253;19;20525;-67
2023/05/04 07:03:26;;;;;;;0.00;0.00;;;;;;;13.85;62.23;100888.56;7361215;19;20733;-67
2023/05/04 07:05:52;;;;;;;0.00;0.00;;;;;;;13.88;62.24;100875.31;7356772;19;20022;-67
2023/05/04 07:08:18;;;;;;;0.10;0.10;;;;;;;13.88;62.31;100872.69;7362284;19;20016;-67
2023/05/04 07:10:44;;;;;;;0.00;0.00;;;;;;;13.94;62.49;100877.75;7356386;19;20010;-67
2023/05/04 07:13:10;;;;;;;0.10;0.10;;;;;;;13.95;62.25;100869.81;7359392;19;20016;-67
2023/05/04 07:15:35;;;;;;;0.10;0.10;;;;;;;14.04;62.49;100876.53;7358168;19;20010;-67
2023/05/04 07:18:01;;;;;;;0.00;0.00;;;;;;;13.99;61.98;100868.81;7362736;19;20502;-67
2023/05/04 07:20:27;;;;;;;0.00;0.00;;;;;;;14.12;62.11;100877.13;7357008;19;20498;-67
2023/05/04 07:22:55;;;;;;;0.00;0.00;;;;;;;14.19;61.88;100878.63;7359769;19;20015;-67
2023/05/04 07:25:25;;;;;;;0.00;0.00;;;;;;;14.21;61.68;100874.16;7360475;19;20027;-67
2023/05/04 07:27:51;;;;;;;0.10;0.10;;;;;;;14.24;62.22;100871.44;7357635;19;20098;-67
2023/05/04 07:30:16;;;;;;;0.10;0.10;;;;;;;14.28;61.96;100872.19;7360531;19;20014;-67
2023/05/04 07:32:42;;;;;;;0.03;0.03;;;;;;;14.32;61.75;100862.44;7358160;19;20011;-67
2023/05/04 07:35:08;;;;;;;0.08;0.08;;;;;;;14.35;62.03;100862.34;7358832;19;20006;-67
2023/05/04 07:37:33;;;;;;;0.10;0.10;;;;;;;14.39;61.76;100864.75;7358081;19;20101;-67
2023/05/04 07:40:00;;;;;;;0.10;0.10;;;;;;;14.43;62.01;100865.53;7360359;19;20930;-67
2023/05/04 07:42:26;;;;;;;0.00;0.00;;;;;;;14.43;61.72;100865.53;7358073;19;20034;-67
2023/05/04 07:44:52;;;;;;;0.10;0.10;;;;;;;14.43;61.76;100855.00;7360212;19;20569;-67
2023/05/04 07:47:18;;;;;;;0.10;0.10;;;;;;;14.58;61.67;100879.91;7358203;19;20020;-66
2023/05/04 07:49:44;;;;;;;0.10;0.10;;;;;;;14.63;61.41;100880.59;7360249;19;20034;-67
2023/05/04 07:52:09;;;;;;;0.00;0.00;;;;;;;14.68;61.39;100879.50;7357641;19;20739;-67
2023/05/04 07:54:35;;;;;;;0.10;0.10;;;;;;;14.74;61.30;100876.66;7358793;19;20125;-66
2023/05/04 07:57:02;;;;;;;0.10;0.10;;;;;;;14.81;61.08;100871.19;7358643;19;20558;-67
2023/05/04 07:59:28;;;;;;;0.00;0.00;;;;;;;14.76;61.14;100845.06;7356367;19;20030;-65
2023/05/04 08:01:53;;;;;;;0.05;0.05;;;;;;;14.92;60.47;100855.88;7355591;19;20593;-68
2023/05/04 08:04:19;;;;;;;0.10;0.10;;;;;;;14.96;60.58;100866.22;7351932;19;20018;-60
2023/05/04 08:06:45;;;;;;;0.10;0.10;;;;;;;14.98;60.96;100845.97;7347358;19;20045;-60
2023/05/04 08:09:11;;;;;;;0.08;0.08;;;;;;;15.08;60.73;100850.88;7360218;19;20046;-61
2023/05/04 08:11:38;;;;;;;0.00;0.00;;;;;;;15.14;60.82;100834.84;7354299;19;20601;-61
2023/05/04 08:14:03;;;;;;;0.00;0.00;;;;;;;15.15;60.65;100834.78;7359339;19;20779;-61
2023/05/04 08:16:29;;;;;;;0.10;0.10;;;;;;;15.24;59.73;100828.28;7356801;19;20018;-61
2023/05/04 08:18:55;;;;;;;0.10;0.10;;;;;;;15.28;59.68;100824.63;7359044;19;20015;-61
2023/05/04 08:21:21;;;;;;;0.00;0.00;;;;;;;15.29;59.03;100816.66;7360099;19;20014;-61
2023/05/04 08:23:47;;;;;;;0.10;0.10;;;;;;;15.25;59.33;100798.44;7358632;19;20849;-61
2023/05/04 08:26:13;;;;;;;0.10;0.10;;;;;;;15.39;59.32;100811.03;7356885;19;20136;-61
2023/05/04 08:28:41;;;;;;;0.10;0.10;;;;;;;15.41;59.13;100799.53;7358069;19;20021;-60
2023/05/04 08:31:07;;;;;;;0.10;0.10;;;;;;;15.44;58.92;100806.44;7358534;19;20014;-61
2023/05/04 08:33:33;;;;;;;0.00;0.00;;;;;;;15.45;58.79;100800.25;7359824;19;20011;-60
2023/05/04 08:35:59;;;;;;;0.10;0.10;;;;;;;15.46;59.12;100800.22;7356715;19;20007;-60
2023/05/04 08:38:25;;;;;;;0.05;0.05;;;;;;;15.46;58.40;100794.06;7359016;19;20091;-60
2023/05/04 08:40:51;;;;;;;0.03;0.03;;;;;;;15.40;58.29;100781.16;7356388;19;20007;-61
2023/05/04 08:43:16;;;;;;;0.10;0.10;;;;;;;15.51;58.27;100805.25;7359822;19;20322;-60
2023/05/04 08:45:42;;;;;;;0.10;0.10;;;;;;;15.51;58.60;100807.88;7358450;19;20688;-61
2023/05/04 08:48:08;;;;;;;0.10;0.10;;;;;;;15.53;58.18;100816.59;7359253;19;20019;-60
2023/05/04 08:50:35;;;;;;;0.10;0.10;;;;;;;15.55;58.27;100814.75;7354816;19;20015;-61
2023/05/04 08:53:04;;;;;;;0.00;0.00;;;;;;;15.57;58.43;100826.94;7358898;19;20033;-61
2023/05/04 08:55:32;;;;;;;0.08;0.08;;;;;;;15.60;58.38;100828.56;7357235;19;20014;-60
2023/05/04 08:58:00;;;;;;;0.00;0.00;;;;;;;15.63;57.84;100817.97;7358132;19;20447;-61
2023/05/04 09:00:27;;;;;;;0.00;0.00;;;;;;;15.66;58.41;100809.94;7353204;19;20666;-61
2023/05/04 09:02:54;;;;;;;0.10;0.10;;;;;;;15.72;58.30;100807.03;7358585;19;20021;-60
2023/05/04 09:05:20;;;;;;;0.03;0.03;;;;;;;15.78;58.46;100792.75;7356059;19;20031;-60
2023/05/04 09:07:47;;;;;;;0.10;0.10;;;;;;;15.86;58.08;100802.94;7358330;19;20022;-60
2023/05/04 09:10:13;;;;;;;0.10;0.10;;;;;;;15.96;58.25;100799.84;7354629;19;20014;-61
2023/05/04 09:12:38;;;;;;;0.08;0.08;;;;;;;16.06;57.63;100802.94;7358520;19;20928;-61
2023/05/04 09:15:17;;;;;;;0.10;0.10;;;;;;;16.20;57.33;100791.81;7357068;19;20018;-61
2023/05/04 09:17:54;;;;;;;0.10;0.10;;;;;;;16.28;57.45;100790.53;7358478;19;20031;-61
2023/05/04 09:20:19;;;;;;;0.10;0.10;;;;;;;16.32;57.06;100797.41;7354112;19;20015;-61
2023/05/04 09:22:45;;;;;;;0.10;0.10;;;;;;;16.42;56.98;100789.03;7356217;19;20507;-61
2023/05/04 09:25:12;;;;;;;0.00;0.00;;;;;;;16.52;56.52;100790.34;7354469;19;20014;-61
2023/05/04 09:27:40;;;;;;;0.10;0.10;;;;;;;16.59;56.79;100786.50;7357650;19;20030;-61
2023/05/04 09:30:06;;;;;;;0.00;0.00;;;;;;;16.69;56.35;100785.16;7355901;19;20089;-61
2023/05/04 09:32:45;;;;;;;0.10;0.10;;;;;;;16.73;56.17;100794.69;7356911;19;20086;-61
2023/05/04 09:35:10;;;;;;;0.10;0.10;;;;;;;16.84;56.12;100797.66;7355976;19;20044;-61
2023/05/04 09:37:44;;;;;;;0.10;0.10;;;;;;;16.95;55.65;100793.66;7358177;19;20401;-61
2023/05/04 09:40:11;;;;;;;0.10;0.10;;;;;;;16.92;55.29;100770.03;7354163;19;20019;-61
2023/05/04 09:42:37;;;;;;;0.10;0.10;;;;;;;16.98;54.70;100764.47;7356262;19;20416;-61
2023/05/04 09:45:04;;;;;;;0.10;0.10;;;;;;;16.99;54.55;100774.13;7354330;19;20089;-61
2023/05/04 09:47:43;;;;;;;0.10;0.10;;;;;;;16.97;54.98;100749.56;7357911;19;20014;-61
2023/05/04 09:50:16;;;;;;;0.10;0.10;;;;;;;17.03;54.93;100757.19;7355590;19;20029;-61
2023/05/04 09:52:43;;;;;;;0.00;0.00;;;;;;;16.99;54.59;100753.03;7354287;19;20022;-61
2023/05/04 09:55:13;;;;;;;0.10;0.10;;;;;;;17.06;54.77;100770.25;7355511;19;20844;-61
2023/05/04 09:57:43;;;;;;;0.10;0.10;;;;;;;17.13;54.75;100776.91;7356774;19;20059;-61
2023/05/04 10:00:11;;;;;;;0.10;0.10;;;;;;;17.24;54.16;100789.63;7356382;19;20007;-61
2023/05/04 10:02:37;;;;;;;0.10;0.10;;;;;;;17.23;54.55;100761.50;7355509;19;20009;-61
2023/05/04 10:05:05;;;;;;;0.10;0.10;;;;;;;17.45;54.73;100771.88;7356531;19;20014;-61
2023/05/04 10:07:32;;;;;;;0.10;0.10;;;;;;;17.61;54.25;100772.78;7354697;19;20015;-61
2023/05/04 10:10:00;;;;;;;;;;;;;;;17.83;55.91;100754.94;7356636;19;20037;-61
2023/05/04 10:12:26;;;;;;;0.10;0.10;;;;;;;17.93;54.26;100768.50;7361324;19;19948;-61
2023/05/04 10:14:52;;;;;;;0.10;0.10;;;;;;;18.11;53.69;100761.44;7362564;19;20052;-61
2023/05/04 10:17:39;;;;;;;0.10;0.10;;;;;;;18.32;54.22;100754.13;7364461;19;20019;-61
2023/05/04 10:20:43;;;;;;;0.10;0.10;;;;;;;18.56;54.89;100747.50;7356120;19;20574;-61
2023/05/04 10:23:14;;;;;;;0.00;0.00;;;;;;;18.69;52.79;100763.56;7259331;19;2004230;-61
2023/05/04 10:26:14;;;;;;;0.08;0.08;;;;;;;18.88;53.48;100753.69;7360335;19;20029;-61
2023/05/04 10:29:17;;;;;;;0.08;0.08;;;;;;;19.01;53.29;100740.63;7260615;19;2004332;-60
2023/05/04 10:31:43;;;;;;;0.10;0.10;;;;;;;19.08;51.49;100749.03;7260578;19;2004132;-61
2023/05/04 10:34:09;;;;;;;0.10;0.10;;;;;;;19.16;51.75;100726.50;7359666;19;20015;-61
2023/05/04 10:36:36;;;;;;;0.10;0.10;;;;;;;19.41;51.89;100739.16;7362707;19;20014;-61
2023/05/04 10:39:03;;;;;;;0.00;0.00;;;;;;;19.64;50.29;100736.97;7361079;19;20006;-61
2023/05/04 10:41:28;;;;;;;0.00;0.00;;;;;;;19.73;49.92;100698.47;7361858;19;20358;-61
2023/05/04 10:44:05;;;;;;;0.10;0.10;;;;;;;20.09;51.35;100716.56;7360236;19;20023;-61
2023/05/04 10:46:30;;;;;;;0.00;0.00;;;;;;;20.05;48.59;100693.81;7362865;19;20719;-61
2023/05/04 10:48:55;;;;;;;0.10;0.10;;;;;;;20.20;47.57;100714.09;7361675;19;20421;-61
2023/05/04 10:51:23;;;;;;;0.10;0.10;;;;;;;20.23;47.97;100713.06;7361731;19;20010;-61
2023/05/04 10:53:49;;;;;;;0.10;0.10;;;;;;;20.19;47.32;100707.94;7361467;19;20034;-61
2023/05/04 10:56:24;;;;;;;0.10;0.10;;;;;;;20.16;48.40;100704.59;7362042;19;20011;-62
2023/05/04 10:58:50;;;;;;;0.10;0.10;;;;;;;20.02;47.79;100708.16;7362362;19;20339;-61
2023/05/04 11:01:17;;;;;;;0.10;0.10;;;;;;;19.92;47.93;100699.91;7359686;19;21612;-60
2023/05/04 11:03:43;;;;;;;0.10;0.10;;;;;;;19.75;47.44;100689.47;7361467;19;20014;-61
2023/05/04 11:06:15;;;;;;;0.10;0.10;;;;;;;19.46;48.56;100638.22;7361208;19;20015;-61
2023/05/04 11:08:41;;;;;;;0.00;0.00;;;;;;;19.64;47.99;100681.31;7362519;19;20006;-61
2023/05/04 11:11:07;;;;;;;0.10;0.10;;;;;;;19.57;47.73;100672.03;7359517;19;20683;-61
2023/05/04 11:13:34;;;;;;;0.10;0.10;;;;;;;19.49;47.71;100663.69;7362389;19;20006;-61
2023/05/04 11:16:00;;;;;;;0.10;0.10;;;;;;;19.44;47.95;100656.84;7358405;19;21046;-61
2023/05/04 11:18:33;;;;;;;0.00;0.00;;;;;;;19.40;48.80;100665.06;7362719;19;20035;-61
2023/05/04 11:20:59;;;;;;;0.10;0.10;;;;;;;19.27;47.95;100664.97;7359204;19;20021;-61
2023/05/04 11:23:25;;;;;;;0.10;0.10;;;;;;;19.21;48.42;100660.06;7359119;19;20011;-61